CDV4 weather

Public forecast

Using degrees Celsius for public forecast. Weather courtesy of forecast.io.

Closest aviation weather report (METAR) to Canadian Skydive Centre Airport

Closest report is Calgary International Airport, 31.3 nm (58.0 km) S. Retrieved 2020/08/15 04:00 UTC (1 minute ago):

CYYC 150400Z 29006KT 15SM BKN091 20/03 A3003 RMK AC6 SLP166 DENSITY ALT 4900FT

Closest aviation forecast (TAF) to Canadian Skydive Centre Airport

Closest forecast is Calgary International Airport, 31.3 nm (58.0 km) S. Retrieved 2020-08-15 03:41 UTC (20 minutes ago):

TAF CYYC 150238Z 1503/1524 30008KT P6SM SCT080 BKN180 OVC240 BECMG 1508/1510 VRB03KT FM151600 16010KT P6SM FEW080 SCT200 RMK NXT FCST BY 150600Z